Time;durP1;ratioP1;P1;durP2;ratioP2;P2;SDS_P1;SDS_P2;PMS_P1;PMS_P2;Temp;Humidity;BMP_temperature;BMP_pressure;BME280_temperature;BME280_humidity;BME280_pressure;Samples;Min_cycle;Max_cycle;Signal;HPM_P1;HPM_P2
2023/09/04 00:00:55;;;;;;;732.85;669.28;;;13.90;81.70;;;;;;4988045;28;20042;-92
2023/09/04 00:03:22;;;;;;;822.85;744.92;;;13.90;81.60;;;;;;4975168;28;20042;-93
2023/09/04 00:05:48;;;;;;;768.00;699.78;;;13.90;81.70;;;;;;4960563;28;20046;-92
2023/09/04 00:08:14;;;;;;;784.72;712.20;;;13.90;81.70;;;;;;4949936;28;20166;-93
2023/09/04 00:10:40;;;;;;;736.38;670.30;;;13.90;81.90;;;;;;4959666;28;20054;-90
2023/09/04 00:13:06;;;;;;;729.17;663.53;;;13.90;81.90;;;;;;4972482;28;20081;-93
2023/09/04 00:15:32;;;;;;;740.33;673.55;;;13.90;81.90;;;;;;4981995;28;20050;-92
2023/09/04 00:18:00;;;;;;;778.58;708.38;;;13.80;81.90;;;;;;4978916;28;20069;-93
2023/09/04 00:20:26;;;;;;;731.50;664.15;;;13.80;81.90;;;;;;4978948;28;20069;-92
2023/09/04 00:22:52;;;;;;;734.42;669.42;;;13.70;81.90;;;;;;4989685;28;20064;-92
2023/09/04 00:25:18;;;;;;;782.00;709.80;;;13.70;81.80;;;;;;4990391;28;20076;-92
2023/09/04 00:27:43;;;;;;;751.10;681.28;;;13.70;81.80;;;;;;4972602;28;20057;-92
2023/09/04 00:30:10;;;;;;;732.92;668.67;;;13.70;81.90;;;;;;4996059;28;20050;-93
2023/09/04 00:32:35;;;;;;;735.78;672.08;;;13.70;81.80;;;;;;4994251;28;20125;-92
2023/09/04 00:35:01;;;;;;;715.30;651.03;;;13.60;81.70;;;;;;4979423;28;20140;-93
2023/09/04 00:37:27;;;;;;;716.60;652.88;;;13.60;81.60;;;;;;4958778;28;20108;-92
2023/09/04 00:39:53;;;;;;;726.20;661.40;;;13.60;81.80;;;;;;4985313;28;20045;-94
2023/09/04 00:42:19;;;;;;;737.17;670.42;;;13.50;81.90;;;;;;4989628;28;20134;-93
2023/09/04 00:44:47;;;;;;;762.17;692.38;;;13.50;81.90;;;;;;5000752;28;20060;-93
2023/09/04 00:47:14;;;;;;;757.10;690.55;;;13.50;81.90;;;;;;4967510;28;20054;-93
2023/09/04 00:49:41;;;;;;;763.38;696.35;;;13.50;81.90;;;;;;4975113;28;20080;-93
2023/09/04 00:52:08;;;;;;;778.38;709.70;;;13.50;81.80;;;;;;5007927;28;20049;-93
2023/09/04 00:54:35;;;;;;;754.97;689.17;;;13.40;81.80;;;;;;4987612;28;20049;-93
2023/09/04 00:57:03;;;;;;;724.17;662.95;;;13.40;81.70;;;;;;4941279;28;20589;-93
2023/09/04 00:59:29;;;;;;;736.45;674.10;;;13.30;81.60;;;;;;4987940;28;20062;-96
2023/09/04 01:01:59;;;;;;;712.22;651.63;;;13.30;81.60;;;;;;4988370;28;20137;-95
2023/09/04 01:04:25;;;;;;;746.60;683.70;;;13.30;81.50;;;;;;5001337;28;20042;-93
2023/09/04 01:06:53;;;;;;;707.80;647.63;;;13.30;81.50;;;;;;4968078;28;20132;-92
2023/09/04 01:09:20;;;;;;;693.22;636.35;;;13.10;81.40;;;;;;5001837;28;20053;-94
2023/09/04 01:11:51;;;;;;;778.75;711.35;;;13.10;81.30;;;;;;4990784;28;20129;-93
2023/09/04 01:14:19;;;;;;;732.33;672.58;;;13.00;81.20;;;;;;5006498;28;20060;-96
2023/09/04 01:16:46;;;;;;;633.65;582.28;;;13.00;81.20;;;;;;4979451;28;20089;-94
2023/09/04 01:19:12;;;;;;;652.95;599.85;;;12.90;81.20;;;;;;4975054;28;20060;-93
2023/09/04 01:21:38;;;;;;;644.00;591.05;;;12.80;81.10;;;;;;4993024;28;20547;-93
2023/09/04 01:24:05;;;;;;;648.78;595.58;;;12.80;81.20;;;;;;4998704;28;20049;-93
2023/09/04 01:26:52;;;;;;;619.17;567.97;;;12.70;81.20;;;;;;4982203;28;20530;-93
2023/09/04 01:29:38;;;;;;;649.90;598.55;;;12.60;81.20;;;;;;4991687;28;20128;-93
2023/09/04 01:32:10;;;;;;;677.88;592.25;;;12.50;81.10;;;;;;4992300;28;20056;-93
2023/09/04 01:34:48;;;;;;;592.67;545.92;;;12.50;81.00;;;;;;5009492;28;20046;-94
2023/09/04 01:37:15;;;;;;;650.55;596.78;;;12.50;81.00;;;;;;4995735;28;20041;-94
2023/09/04 01:39:42;;;;;;;606.75;558.92;;;12.30;81.10;;;;;;4978707;28;20045;-93
2023/09/04 01:42:09;;;;;;;613.95;560.67;;;12.20;81.00;;;;;;4985326;28;20072;-94
2023/09/04 01:44:34;;;;;;;577.25;531.47;;;12.20;80.90;;;;;;4991403;28;20110;-94
2023/09/04 01:47:00;;;;;;;597.85;549.95;;;12.10;80.90;;;;;;4947724;28;20195;-93
2023/09/04 01:49:26;;;;;;;598.08;550.72;;;12.00;81.10;;;;;;4950035;28;20406;-93
2023/09/04 01:51:53;;;;;;;601.05;551.72;;;12.00;81.20;;;;;;4972613;28;20046;-94
2023/09/04 01:54:19;;;;;;;627.30;571.95;;;12.00;81.20;;;;;;4972341;28;20526;-94
2023/09/04 01:56:45;;;;;;;644.22;596.10;;;11.90;81.10;;;;;;4979344;28;20133;-94
2023/09/04 01:59:10;;;;;;;632.55;576.42;;;11.90;81.20;;;;;;4975902;28;20138;-93
2023/09/04 02:01:37;;;;;;;617.47;570.10;;;11.90;81.20;;;;;;4967358;28;20050;-95
2023/09/04 02:04:02;;;;;;;625.13;578.25;;;11.90;81.20;;;;;;4975251;28;20079;-93
2023/09/04 02:06:31;;;;;;;593.90;547.17;;;11.80;81.20;;;;;;4981568;28;20854;-96
2023/09/04 02:08:57;;;;;;;628.67;579.05;;;11.80;81.20;;;;;;4983969;28;20520;-94
2023/09/04 02:11:24;;;;;;;632.53;581.92;;;11.80;81.40;;;;;;4970204;28;20060;-94
2023/09/04 02:13:49;;;;;;;650.85;598.92;;;11.80;81.40;;;;;;4962166;28;20042;-94
2023/09/04 02:16:15;;;;;;;619.03;570.70;;;11.80;81.40;;;;;;4935736;28;20049;-94
2023/09/04 02:18:41;;;;;;;618.00;570.78;;;11.70;81.40;;;;;;4951577;28;20491;-93
2023/09/04 02:21:07;;;;;;;589.58;543.45;;;11.70;81.30;;;;;;4952509;28;20050;-93
2023/09/04 02:23:33;;;;;;;589.30;542.47;;;11.70;81.50;;;;;;4964743;28;20096;-93
2023/09/04 02:25:59;;;;;;;606.72;559.53;;;11.70;81.40;;;;;;4956835;28;20043;-94
2023/09/04 02:28:25;;;;;;;591.83;546.75;;;11.70;81.40;;;;;;4969782;28;20481;-94
2023/09/04 02:30:51;;;;;;;590.45;543.88;;;11.70;81.40;;;;;;4955561;28;20489;-94
2023/09/04 02:33:17;;;;;;;600.53;551.88;;;11.70;81.60;;;;;;4971948;28;20050;-93
2023/09/04 02:35:43;;;;;;;650.17;598.70;;;11.80;81.80;;;;;;4941971;28;20054;-94
2023/09/04 02:38:08;;;;;;;627.17;576.08;;;11.90;81.80;;;;;;4960127;28;20043;-93
2023/09/04 02:40:34;;;;;;;602.90;553.28;;;11.90;82.10;;;;;;4997935;28;20141;-94
2023/09/04 02:43:02;;;;;;;614.17;564.22;;;11.90;82.50;;;;;;4942156;28;20042;-95
2023/09/04 02:45:28;;;;;;;615.80;566.40;;;11.90;82.20;;;;;;4975417;28;20050;-94
2023/09/04 02:47:53;;;;;;;599.53;549.25;;;11.90;82.20;;;;;;4938390;28;20061;-93
2023/09/04 02:50:19;;;;;;;641.35;590.97;;;11.90;82.30;;;;;;4927437;28;20042;-93
2023/09/04 02:52:45;;;;;;;681.10;623.70;;;11.90;82.10;;;;;;4960092;28;20456;-93
2023/09/04 02:55:12;;;;;;;666.72;611.30;;;11.90;82.00;;;;;;4963454;28;20081;-95
2023/09/04 02:57:38;;;;;;;626.42;575.25;;;11.90;82.00;;;;;;4969112;28;20092;-95
2023/09/04 03:00:06;;;;;;;629.28;576.80;;;11.90;82.00;;;;;;4966073;28;20402;-95
2023/09/04 03:02:36;;;;;;;633.38;582.42;;;11.90;82.20;;;;;;4959132;28;20097;-94
2023/09/04 03:05:02;;;;;;;692.92;630.92;;;11.80;82.00;;;;;;4976418;28;20137;-94
2023/09/04 03:07:28;;;;;;;638.20;586.67;;;11.80;82.00;;;;;;4962338;28;20047;-94
2023/09/04 03:09:58;;;;;;;641.75;588.90;;;11.70;82.00;;;;;;4973152;28;20097;-94
2023/09/04 03:12:25;;;;;;;594.70;547.25;;;11.70;82.00;;;;;;4978519;28;20092;-94
2023/09/04 03:14:58;;;;;;;591.60;545.55;;;11.70;82.10;;;;;;4979614;28;20062;-94
2023/09/04 03:17:44;;;;;;;650.92;599.58;;;11.70;82.00;;;;;;4964291;28;20134;-94
2023/09/04 03:20:30;;;;;;;593.92;546.60;;;11.70;81.90;;;;;;4944937;28;20046;-94
2023/09/04 03:22:55;;;;;;;620.75;573.55;;;11.70;82.00;;;;;;4957483;28;20070;-94
2023/09/04 03:25:21;;;;;;;622.05;574.55;;;11.70;82.10;;;;;;4961328;28;20093;-94
2023/09/04 03:27:47;;;;;;;594.47;546.13;;;11.70;81.90;;;;;;4955979;28;20043;-94
2023/09/04 03:30:21;;;;;;;560.75;513.80;;;11.70;81.90;;;;;;4952897;28;20493;-94
2023/09/04 03:32:49;;;;;;;651.40;598.90;;;11.70;81.90;;;;;;4978957;28;20065;-93
2023/09/04 03:35:17;;;;;;;635.88;585.72;;;11.70;81.90;;;;;;4963244;28;20137;-94
2023/09/04 03:37:42;;;;;;;564.55;515.80;;;11.70;81.90;;;;;;4970064;28;20082;-94
2023/09/04 03:40:39;;;;;;;595.92;548.17;;;11.70;82.00;;;;;;4963257;28;20510;-94
2023/09/04 03:43:05;;;;;;;470.05;432.63;;;11.60;81.90;;;;;;4954659;28;20486;-93
2023/09/04 03:45:35;;;;;;;420.55;386.52;;;11.50;81.90;;;;;;4963508;28;20054;-94
2023/09/04 03:48:01;;;;;;;626.28;577.75;;;11.50;81.80;;;;;;4945385;28;20401;-94
2023/09/04 03:50:29;;;;;;;588.00;542.75;;;11.50;81.90;;;;;;4946879;28;20077;-94
2023/09/04 03:53:01;;;;;;;541.95;497.27;;;11.50;81.90;;;;;;4946347;28;20042;-94
2023/09/04 03:55:53;;;;;;;545.97;502.67;;;11.50;81.90;;;;;;4945563;28;20132;-92
2023/09/04 03:58:18;;;;;;;612.78;563.58;;;11.50;82.00;;;;;;4960503;28;20053;-94
2023/09/04 04:00:44;;;;;;;558.88;512.97;;;11.50;82.00;;;;;;4947706;28;20486;-95
2023/09/04 04:03:10;;;;;;;581.85;533.15;;;11.50;81.90;;;;;;4953162;28;20398;-95
2023/09/04 04:06:22;;;;;;;603.83;553.35;;;11.50;82.00;;;;;;4979703;28;20145;-95
2023/09/04 04:08:52;;;;;;;524.63;485.27;;;11.50;82.00;;;;;;4961660;28;20050;-95
2023/09/04 04:11:21;;;;;;;572.72;528.17;;;11.50;82.00;;;;;;4978099;28;20046;-95
2023/09/04 04:13:47;;;;;;;375.60;345.35;;;11.50;81.90;;;;;;4961196;28;20050;-95
2023/09/04 04:16:16;;;;;;;621.92;572.35;;;11.50;81.90;;;;;;4977488;28;20042;-93
2023/09/04 04:18:41;;;;;;;526.80;486.20;;;11.40;81.90;;;;;;4959861;28;20071;-94
2023/09/04 04:21:07;;;;;;;467.65;430.05;;;11.40;81.80;;;;;;4963235;28;20051;-93
2023/09/04 04:23:38;;;;;;;606.00;556.80;;;11.40;81.90;;;;;;4961076;28;20075;-95
2023/09/04 04:26:16;;;;;;;699.60;641.90;;;11.40;81.80;;;;;;4962457;28;20043;-95
2023/09/04 04:28:42;;;;;;;504.13;466.00;;;11.40;81.90;;;;;;4959317;28;20050;-94
2023/09/04 04:31:10;;;;;;;552.55;510.25;;;11.30;81.90;;;;;;4947000;28;20046;-94
2023/09/04 04:33:36;;;;;;;535.20;492.35;;;11.30;81.90;;;;;;4977707;28;20043;-95
2023/09/04 04:36:03;;;;;;;709.08;650.75;;;11.30;81.90;;;;;;4978991;28;20183;-94
2023/09/04 04:42:03;;;;;;;343.65;317.85;;;11.30;81.90;;;;;;4960427;28;20418;-94
2023/09/04 04:44:29;;;;;;;587.22;541.67;;;11.20;81.90;;;;;;4974215;28;20058;-94
2023/09/04 04:47:14;;;;;;;512.00;473.23;;;11.20;81.90;;;;;;4926991;28;20129;-94
2023/09/04 04:53:33;;;;;;;366.83;338.83;;;11.10;81.90;;;;;;4977597;28;20057;-94
2023/09/04 04:56:39;;;;;;;619.00;571.65;;;11.10;81.90;;;;;;4959200;28;20182;-94
2023/09/04 04:59:05;;;;;;;379.88;351.33;;;11.10;81.90;;;;;;4958097;28;20425;-93
2023/09/04 05:01:31;;;;;;;516.17;477.13;;;11.10;82.00;;;;;;4990596;28;20093;-93
2023/09/04 05:03:57;;;;;;;426.02;391.85;;;11.10;82.00;;;;;;4974242;28;20410;-93
2023/09/04 05:06:23;;;;;;;392.58;361.50;;;11.10;82.00;;;;;;4958536;28;20096;-94
2023/09/04 05:08:48;;;;;;;686.13;629.38;;;11.10;82.00;;;;;;4957821;28;20446;-94
2023/09/04 05:11:18;;;;;;;491.48;453.67;;;11.10;82.10;;;;;;4974898;28;20050;-94
2023/09/04 05:28:32;;;;;;;329.77;304.98;;;11.20;82.30;;;;;;5013372;28;20127;-93
2023/09/04 05:34:27;;;;;;;350.10;323.02;;;11.40;82.70;;;;;;4995725;28;20490;-93
2023/09/04 05:36:54;;;;;;;450.65;413.98;;;11.50;83.00;;;;;;4978923;28;20041;-94
2023/09/04 05:39:19;;;;;;;539.40;492.27;;;11.50;82.80;;;;;;4980998;28;20478;-93
2023/09/04 05:41:55;;;;;;;637.28;580.22;;;11.50;83.00;;;;;;4997046;28;20124;-93
2023/09/04 05:44:21;;;;;;;594.83;542.58;;;11.60;83.20;;;;;;4966348;28;20057;-93
2023/09/04 05:46:46;;;;;;;567.50;520.35;;;11.70;83.60;;;;;;4978749;28;20527;-94
2023/09/04 05:49:13;;;;;;;595.38;546.75;;;11.80;83.70;;;;;;4974434;28;20057;-93
2023/09/04 05:51:39;;;;;;;622.60;568.33;;;11.90;83.80;;;;;;4951447;28;20053;-94
2023/09/04 05:54:04;;;;;;;635.50;579.63;;;11.90;83.90;;;;;;4982311;28;20050;-95
2023/09/04 05:56:30;;;;;;;647.08;592.25;;;12.10;83.80;;;;;;4971095;28;20132;-94
2023/09/04 05:58:56;;;;;;;686.17;626.25;;;12.10;83.90;;;;;;4962407;28;20050;-94
2023/09/04 06:01:23;;;;;;;692.05;632.60;;;12.30;84.00;;;;;;4978205;28;20053;-93
2023/09/04 06:03:49;;;;;;;714.25;644.85;;;12.50;84.00;;;;;;5003048;28;20035;-94
2023/09/04 06:06:15;;;;;;;743.83;674.35;;;12.50;84.00;;;;;;4992509;28;20033;-96
2023/09/04 06:08:41;;;;;;;701.60;639.53;;;12.70;83.90;;;;;;4979316;28;20401;-94
2023/09/04 06:11:07;;;;;;;741.03;674.20;;;12.70;83.80;;;;;;4995890;28;20050;-95
2023/09/04 06:13:33;;;;;;;752.22;682.85;;;12.80;83.80;;;;;;4997630;28;20053;-95
2023/09/04 06:15:59;;;;;;;624.53;572.35;;;12.90;83.80;;;;;;4992044;28;20158;-95
2023/09/04 06:18:29;;;;;;;717.67;652.92;;;13.00;83.70;;;;;;4988698;28;20046;-95
2023/09/04 06:20:55;;;;;;;799.33;719.95;;;13.00;83.60;;;;;;4990753;28;20400;-94
2023/09/04 06:23:21;;;;;;;752.58;683.90;;;13.10;83.60;;;;;;4997487;28;20041;-94
2023/09/04 06:25:47;;;;;;;740.75;670.67;;;13.10;83.50;;;;;;4989699;28;20053;-95
2023/09/04 06:28:14;;;;;;;730.15;665.88;;;13.10;83.40;;;;;;5014099;28;20115;-96
2023/09/04 06:30:40;;;;;;;772.60;698.22;;;13.20;83.40;;;;;;5000022;28;20103;-94
2023/09/04 06:33:14;;;;;;;779.60;702.53;;;13.30;83.40;;;;;;4998909;28;20488;-95
2023/09/04 06:39:21;;;;;;;656.10;603.60;;;13.40;83.20;;;;;;5034909;28;20185;-95
2023/09/04 06:41:46;;;;;;;650.03;596.13;;;13.50;83.30;;;;;;4987464;28;20148;-96
2023/09/04 06:44:23;;;;;;;753.67;686.28;;;13.50;83.20;;;;;;4986838;28;20099;-95
2023/09/04 06:46:50;;;;;;;726.42;661.95;;;13.60;83.10;;;;;;4983667;28;20317;-94
2023/09/04 06:49:15;;;;;;;802.38;723.45;;;13.70;83.20;;;;;;4979163;28;20056;-94
2023/09/04 06:51:42;;;;;;;697.83;637.30;;;13.70;83.10;;;;;;4980171;28;20046;-95
2023/09/04 06:54:08;;;;;;;819.35;733.58;;;13.90;83.20;;;;;;4964107;28;20053;-93
2023/09/04 06:56:33;;;;;;;800.47;724.78;;;13.90;83.10;;;;;;4939134;28;20431;-95
2023/09/04 06:58:59;;;;;;;771.65;699.97;;;14.00;83.20;;;;;;4994068;28;20058;-95
2023/09/04 07:01:25;;;;;;;682.20;621.42;;;14.10;83.20;;;;;;4959224;28;20088;-95
2023/09/04 07:03:50;;;;;;;779.67;706.55;;;14.20;83.10;;;;;;4964310;28;20054;-96
2023/09/04 07:06:23;;;;;;;762.55;691.72;;;14.30;83.00;;;;;;4984435;28;20049;-96
2023/09/04 07:08:50;;;;;;;799.08;723.70;;;14.40;83.00;;;;;;4965390;28;20473;-96
2023/09/04 07:11:16;;;;;;;803.85;727.88;;;14.50;83.00;;;;;;4982538;28;20582;-94
2023/09/04 07:13:42;;;;;;;774.88;703.13;;;14.60;83.00;;;;;;4963779;28;20132;-94
2023/09/04 07:16:11;;;;;;;776.55;705.05;;;14.60;82.90;;;;;;4972625;28;20408;-96
2023/09/04 07:18:42;;;;;;;777.15;704.15;;;14.70;82.90;;;;;;4986623;28;20054;-96
2023/09/04 07:21:07;;;;;;;787.30;713.22;;;14.80;82.90;;;;;;4981691;28;20049;-94
2023/09/04 07:23:33;;;;;;;788.53;713.10;;;14.90;82.70;;;;;;4967226;28;20082;-93
2023/09/04 07:26:01;;;;;;;793.30;718.75;;;15.00;82.60;;;;;;5003612;28;20555;-95
2023/09/04 07:28:29;;;;;;;785.97;710.40;;;15.00;82.60;;;;;;4973041;28;20473;-94
2023/09/04 07:31:21;;;;;;;765.78;696.20;;;15.10;82.60;;;;;;4998973;28;20132;-96
2023/09/04 07:33:48;;;;;;;;;;;15.20;82.60;;;;;;4992895;28;20890;-93
2023/09/04 07:36:16;;;;;;;702.33;640.47;;;15.30;82.70;;;;;;4966383;28;19929;-95
2023/09/04 07:38:43;;;;;;;824.30;740.28;;;15.40;82.60;;;;;;4968603;28;20572;-94
2023/09/04 07:41:11;;;;;;;806.13;729.88;;;15.50;82.40;;;;;;4975051;28;20052;-93
2023/09/04 07:43:36;;;;;;;841.13;757.30;;;15.60;82.40;;;;;;4958851;28;20061;-94
2023/09/04 07:46:06;;;;;;;850.55;768.17;;;15.80;82.20;;;;;;4975431;28;20045;-93
2023/09/04 07:48:40;;;;;;;851.28;765.72;;;15.80;82.20;;;;;;4981171;28;20107;-94
2023/09/04 07:51:08;;;;;;;817.72;740.63;;;16.00;82.10;;;;;;4975980;28;20140;-93
2023/09/04 07:53:34;;;;;;;817.40;739.78;;;16.00;82.10;;;;;;5005274;28;20450;-92
2023/09/04 07:56:03;;;;;;;847.80;767.65;;;16.10;82.00;;;;;;4974987;28;20049;-92
2023/09/04 07:58:28;;;;;;;847.80;765.75;;;16.20;81.90;;;;;;4959248;28;22001;-95
2023/09/04 08:00:54;;;;;;;898.38;808.42;;;16.20;81.80;;;;;;4991734;28;20049;-91
2023/09/04 08:03:20;;;;;;;843.00;761.45;;;16.40;81.90;;;;;;4976330;28;20057;-93
2023/09/04 08:05:46;;;;;;;798.17;722.03;;;16.40;81.80;;;;;;4991242;28;20093;-92
2023/09/04 08:08:12;;;;;;;821.00;743.05;;;16.50;81.50;;;;;;4961091;28;20220;-92
2023/09/04 08:10:49;;;;;;;819.13;740.72;;;16.60;80.90;;;;;;4990186;28;20046;-94
2023/09/04 08:13:21;;;;;;;789.13;717.78;;;16.70;80.50;;;;;;4993184;28;20057;-93
2023/09/04 08:15:47;;;;;;;813.08;737.42;;;16.80;80.10;;;;;;4991518;28;20045;-94
2023/09/04 08:18:13;;;;;;;833.17;755.05;;;16.90;80.00;;;;;;4950715;28;20599;-94
2023/09/04 08:20:39;;;;;;;813.85;738.55;;;16.90;79.80;;;;;;4979645;28;20508;-92
2023/09/04 08:23:06;;;;;;;828.97;753.53;;;17.00;79.50;;;;;;4975494;28;20187;-96
2023/09/04 08:25:33;;;;;;;812.75;740.47;;;17.00;78.90;;;;;;4954610;28;20139;-95
2023/09/04 08:27:59;;;;;;;849.53;773.40;;;17.20;78.70;;;;;;4971681;28;20482;-93
2023/09/04 08:30:25;;;;;;;881.75;789.50;;;17.20;78.50;;;;;;4972729;28;20061;-93
2023/09/04 08:32:51;;;;;;;843.50;763.47;;;17.30;78.40;;;;;;4972336;28;20064;-92
2023/09/04 08:35:20;;;;;;;842.42;764.22;;;17.40;78.10;;;;;;4999013;28;20132;-94
2023/09/04 08:37:47;;;;;;;887.00;798.95;;;17.40;77.80;;;;;;4977024;28;20511;-94
2023/09/04 08:40:13;;;;;;;841.65;763.22;;;17.50;77.60;;;;;;4995213;28;20532;-92
2023/09/04 08:42:39;;;;;;;842.67;765.17;;;17.50;77.30;;;;;;4983823;28;20042;-92
2023/09/04 08:45:09;;;;;;;825.55;747.80;;;17.60;77.40;;;;;;4997770;28;20057;-94
2023/09/04 08:47:39;;;;;;;889.95;802.35;;;17.70;77.00;;;;;;4975087;28;20386;-94
2023/09/04 08:50:08;;;;;;;824.67;747.78;;;17.80;76.40;;;;;;4972173;28;20081;-93
2023/09/04 08:52:36;;;;;;;901.05;813.50;;;17.80;76.60;;;;;;4992031;28;20535;-93
2023/09/04 08:55:04;;;;;;;877.35;791.65;;;18.00;76.70;;;;;;4986161;28;20071;-92
2023/09/04 08:57:31;;;;;;;898.20;806.55;;;18.00;76.00;;;;;;4954287;28;20050;-94
2023/09/04 08:59:57;;;;;;;901.10;810.72;;;18.10;75.40;;;;;;4990456;28;20045;-95
2023/09/04 09:02:22;;;;;;;916.10;820.55;;;18.10;75.20;;;;;;4970183;28;20776;-95
2023/09/04 09:04:49;;;;;;;954.80;856.33;;;18.20;75.10;;;;;;4989543;28;21569;-92
2023/09/04 09:07:16;;;;;;;912.45;818.42;;;18.30;75.00;;;;;;4972798;28;20500;-92
2023/09/04 09:09:46;;;;;;;919.30;824.33;;;18.30;74.60;;;;;;4988675;28;20140;-91
2023/09/04 09:12:12;;;;;;;928.35;832.17;;;18.40;74.40;;;;;;4983820;28;20046;-91
2023/09/04 09:14:38;;;;;;;925.05;827.60;;;18.40;74.00;;;;;;4969994;28;20641;-92
2023/09/04 09:17:10;;;;;;;912.90;820.55;;;18.50;74.00;;;;;;4952858;28;20057;-90
2023/09/04 09:19:37;;;;;;;944.88;844.50;;;18.60;73.80;;;;;;4986209;28;20050;-94
2023/09/04 09:22:17;;;;;;;926.70;830.72;;;18.60;73.60;;;;;;5006351;28;20084;-92
2023/09/04 09:24:59;;;;;;;923.55;828.60;;;18.70;73.30;;;;;;4994210;28;20093;-92
2023/09/04 09:27:26;;;;;;;935.60;832.63;;;18.80;73.30;;;;;;4971261;28;20606;-91
2023/09/04 09:29:57;;;;;;;964.45;859.88;;;18.90;73.20;;;;;;4989811;28;20524;-95
2023/09/04 09:32:26;;;;;;;978.53;871.10;;;18.90;72.90;;;;;;4989228;28;20501;-91
2023/09/04 09:34:53;;;;;;;927.88;834.15;;;18.90;72.20;;;;;;5007007;28;20057;-94
2023/09/04 09:37:20;;;;;;;928.72;832.28;;;19.00;72.10;;;;;;4952877;28;20106;-92
2023/09/04 09:39:46;;;;;;;924.13;829.15;;;19.10;72.10;;;;;;4977259;28;20089;-92
2023/09/04 09:42:12;;;;;;;953.97;851.10;;;19.20;72.30;;;;;;4962681;28;20046;-93
2023/09/04 09:44:38;;;;;;;974.67;871.78;;;19.30;72.20;;;;;;4993154;28;20408;-93
2023/09/04 09:47:09;;;;;;;958.35;857.20;;;19.30;72.30;;;;;;4979262;28;20049;-91
2023/09/04 09:49:40;;;;;;;;;;;19.40;71.70;;;;;;4992358;28;20057;-92
2023/09/04 09:52:10;;;;;;;929.97;833.97;;;19.40;70.60;;;;;;4989820;28;19929;-91
2023/09/04 09:54:40;;;;;;;945.80;851.00;;;19.40;71.60;;;;;;5007944;28;20076;-93
2023/09/04 09:57:12;;;;;;;935.88;839.33;;;19.50;71.50;;;;;;4978491;28;20570;-91
2023/09/04 09:59:46;;;;;;;957.75;857.58;;;19.50;71.60;;;;;;4967875;28;20605;-92
2023/09/04 10:02:32;;;;;;;943.92;845.60;;;19.50;71.40;;;;;;4986471;28;20552;-93
2023/09/04 10:04:58;;;;;;;930.33;835.78;;;19.70;71.10;;;;;;4985547;28;20127;-94
2023/09/04 10:07:28;;;;;;;882.33;794.58;;;19.70;70.80;;;;;;4953905;28;20522;-94
2023/09/04 10:10:03;;;;;;;936.80;843.53;;;19.80;70.00;;;;;;4989038;28;20050;-93
2023/09/04 10:12:49;;;;;;;926.92;833.35;;;19.80;70.10;;;;;;4989072;28;20548;-92
2023/09/04 10:15:24;;;;;;;936.38;841.83;;;19.90;69.50;;;;;;4985873;28;20132;-92
2023/09/04 10:18:10;;;;;;;955.50;858.65;;;19.90;69.60;;;;;;4980518;28;20058;-92
2023/09/04 10:20:36;;;;;;;955.08;857.85;;;19.90;69.60;;;;;;4980342;28;20064;-92
2023/09/04 10:23:10;;;;;;;966.13;868.97;;;19.90;69.80;;;;;;4982335;28;20046;-93
2023/09/04 10:25:50;;;;;;;1044.10;891.28;;;20.00;69.80;;;;;;4984527;28;20140;-93
2023/09/04 10:28:32;;;;;;;958.63;863.67;;;20.00;69.80;;;;;;4968312;28;20060;-94
2023/09/04 10:31:00;;;;;;;933.75;842.17;;;20.10;70.30;;;;;;4980073;28;20104;-92
2023/09/04 10:33:26;;;;;;;945.33;853.60;;;20.10;70.20;;;;;;4967321;28;20355;-92
2023/09/04 10:35:54;;;;;;;955.85;862.85;;;20.10;70.30;;;;;;4964649;28;20057;-93
2023/09/04 10:38:25;;;;;;;945.10;850.58;;;20.20;70.20;;;;;;4970647;28;20371;-92
2023/09/04 10:40:52;;;;;;;921.15;833.92;;;20.30;69.80;;;;;;4967681;28;20431;-92
2023/09/04 10:43:18;;;;;;;889.95;806.28;;;20.20;69.50;;;;;;4998827;28;20108;-92
2023/09/04 10:46:14;;;;;;;908.67;816.13;;;20.30;69.60;;;;;;4985521;28;20394;-94
2023/09/04 10:48:44;;;;;;;855.58;775.47;;;20.30;69.40;;;;;;4970935;28;20069;-92
2023/09/04 10:51:30;;;;;;;884.28;802.58;;;20.30;69.90;;;;;;5000731;28;20073;-93
2023/09/04 10:53:58;;;;;;;867.53;785.53;;;20.30;70.00;;;;;;5001467;28;20100;-92
2023/09/04 10:56:24;;;;;;;865.50;784.80;;;20.40;70.20;;;;;;4977336;28;20564;-94
2023/09/04 10:59:06;;;;;;;859.00;782.70;;;20.50;70.20;;;;;;4961858;28;20561;-94
2023/09/04 11:01:33;;;;;;;857.80;777.92;;;20.50;69.50;;;;;;4984360;28;20058;-94
2023/09/04 11:04:05;;;;;;;876.75;797.28;;;20.40;69.90;;;;;;5001403;28;20069;-94
2023/09/04 11:06:34;;;;;;;838.40;763.20;;;20.50;69.60;;;;;;4971013;28;20422;-94
2023/09/04 11:09:02;;;;;;;880.03;799.22;;;20.50;69.50;;;;;;4968744;28;20062;-94
2023/09/04 11:11:29;;;;;;;866.17;785.13;;;20.50;69.60;;;;;;4986653;28;20053;-93
2023/09/04 11:13:57;;;;;;;858.58;779.33;;;20.50;69.60;;;;;;4984862;28;20052;-93
2023/09/04 11:16:24;;;;;;;893.70;808.33;;;20.60;69.50;;;;;;4972003;28;20061;-93
2023/09/04 11:19:06;;;;;;;906.10;812.70;;;20.60;69.50;;;;;;4986656;28;20053;-92
2023/09/04 11:21:36;;;;;;;838.97;761.05;;;20.70;69.30;;;;;;4984719;28;20053;-95
2023/09/04 11:24:04;;;;;;;925.22;830.33;;;20.70;69.20;;;;;;4967229;28;20111;-95
2023/09/04 11:26:30;;;;;;;813.55;741.53;;;20.70;69.20;;;;;;4939491;28;20540;-95
2023/09/04 11:29:01;;;;;;;855.53;775.20;;;20.70;69.30;;;;;;4983821;28;20582;-95
2023/09/04 11:31:28;;;;;;;892.80;805.40;;;20.70;69.60;;;;;;4955225;28;20546;-94
2023/09/04 11:33:55;;;;;;;852.28;775.33;;;20.70;69.50;;;;;;5003060;28;20104;-94
2023/09/04 11:36:22;;;;;;;882.30;793.83;;;20.70;69.20;;;;;;4954503;28;20060;-93
2023/09/04 11:38:51;;;;;;;863.65;785.10;;;20.80;69.30;;;;;;4983585;28;20053;-94
2023/09/04 11:41:18;;;;;;;883.38;800.00;;;20.80;69.30;;;;;;4984854;28;20049;-92
2023/09/04 11:43:45;;;;;;;857.75;770.47;;;20.90;69.20;;;;;;4967056;28;20050;-94
2023/09/04 11:46:11;;;;;;;859.03;780.95;;;21.00;69.00;;;;;;4973029;28;20523;-95
2023/09/04 11:48:40;;;;;;;871.53;786.35;;;21.00;69.00;;;;;;4977729;28;20068;-92
2023/09/04 11:51:07;;;;;;;889.42;807.20;;;21.10;68.90;;;;;;4968700;28;20089;-94
2023/09/04 11:53:33;;;;;;;828.58;753.33;;;21.10;68.20;;;;;;4969241;28;20053;-94
2023/09/04 11:55:59;;;;;;;882.70;800.47;;;21.20;68.10;;;;;;5002096;28;20061;-94
2023/09/04 11:58:25;;;;;;;1026.88;890.78;;;21.30;68.30;;;;;;4957570;28;20074;-96
2023/09/04 12:00:51;;;;;;;866.63;779.20;;;21.30;68.10;;;;;;4987362;28;20132;-93
2023/09/04 12:03:17;;;;;;;857.05;780.40;;;21.30;68.20;;;;;;4970230;28;20136;-93
2023/09/04 12:05:44;;;;;;;889.90;802.63;;;21.30;68.30;;;;;;4987524;28;20427;-91
2023/09/04 12:08:10;;;;;;;887.92;802.50;;;21.40;68.30;;;;;;4973080;28;20062;-94
2023/09/04 12:10:40;;;;;;;855.08;778.20;;;21.40;67.90;;;;;;4988189;28;20060;-93
2023/09/04 12:13:05;;;;;;;887.88;796.65;;;21.40;67.90;;;;;;4962716;28;20068;-95
2023/09/04 12:15:35;;;;;;;900.05;817.33;;;21.40;67.70;;;;;;4973701;28;20057;-95
2023/09/04 12:18:05;;;;;;;892.45;803.53;;;21.30;67.70;;;;;;4955643;28;20095;-95
2023/09/04 12:20:40;;;;;;;885.65;799.13;;;21.30;67.50;;;;;;4985962;28;20049;-94
2023/09/04 12:23:06;;;;;;;883.92;797.28;;;21.30;67.40;;;;;;4983797;28;20053;-95
2023/09/04 12:25:53;;;;;;;887.28;799.25;;;21.30;67.90;;;;;;4972186;28;20879;-95
2023/09/04 12:28:19;;;;;;;895.17;807.95;;;21.30;67.70;;;;;;4971864;28;20695;-94
2023/09/04 12:30:51;;;;;;;876.10;794.78;;;21.30;67.60;;;;;;4956617;28;20103;-94
2023/09/04 12:33:17;;;;;;;883.53;801.42;;;21.30;67.50;;;;;;4986799;28;20054;-95
2023/09/04 12:35:43;;;;;;;859.13;783.53;;;21.40;67.30;;;;;;4985126;28;20107;-95
2023/09/04 12:38:12;;;;;;;874.72;794.53;;;21.40;67.40;;;;;;4975270;28;20046;-96
2023/09/04 12:40:41;;;;;;;900.30;816.90;;;21.50;66.90;;;;;;4975553;28;22139;-96
2023/09/04 12:43:07;;;;;;;873.33;790.45;;;21.50;66.60;;;;;;4968534;28;20082;-95
2023/09/04 12:45:33;;;;;;;908.70;820.67;;;21.60;66.90;;;;;;4968521;28;20472;-89